Terminal Aerodrome Forecast
Issued by NWS Cleveland, OH

Home | Current Version | Previous Version | Graphics & Text | Print | Product List | Glossary Off
Versions: 1 2 3 4 5 6 7 8 9 10 11 12 13 14 15 16 17 18 19 20 21 22 23

304
FTUS41 KCLE 092249 AAC
TAFTOL
TAF AMD
KTOL 092249Z 0923/1018 28014G22KT P6SM OVC025
     FM100100 27012G20KT P6SM OVC018
     FM100600 27012KT P6SM OVC015
     FM100900 28012KT 4SM -SHSN OVC015
     FM101400 29014KT P6SM OVC035=

USA.gov is the U.S. government's official web portal to all federal, state and local government web resources and services.